createdAt,value
2022-10-24T00:00:59.857Z,99423.22
2022-10-24T00:03:49.108Z,99418.69
2022-10-24T00:06:37.483Z,99422.69
2022-10-24T00:09:25.791Z,99417.34
2022-10-24T00:12:15.600Z,99414.44
2022-10-24T00:15:04.617Z,99416.06
2022-10-24T00:17:52.987Z,99422.00
2022-10-24T00:20:41.403Z,99422.41
2022-10-24T00:23:29.731Z,99426.06
2022-10-24T00:26:18.141Z,99410.53
2022-10-24T00:29:07.934Z,99419.50
2022-10-24T00:31:56.298Z,99411.22
2022-10-24T00:34:44.670Z,99414.44
2022-10-24T00:37:33.006Z,99412.50
2022-10-24T00:40:21.601Z,99409.72
2022-10-24T00:43:15.559Z,99412.91
2022-10-24T00:46:05.419Z,99407.69
2022-10-24T00:48:54.669Z,99405.06
2022-10-24T00:51:43.079Z,99405.06
2022-10-24T00:54:31.469Z,99403.13
2022-10-24T00:57:22.292Z,99407.56
2022-10-24T01:00:13.452Z,99396.09
2022-10-24T01:03:03.230Z,99402.84
2022-10-24T01:06:06.489Z,99404.53
2022-10-24T01:09:00.770Z,99410.44
2022-10-24T01:11:58.730Z,99399.81
2022-10-24T01:14:53.699Z,99401.38
2022-10-24T01:17:44.875Z,99406.44
2022-10-24T01:20:50.024Z,99404.53
2022-10-24T01:23:58.783Z,99405.50
2022-10-24T01:27:18.499Z,99400.38
2022-10-24T01:30:10.045Z,99402.88
2022-10-24T01:33:00.402Z,99389.63
2022-10-24T01:35:52.636Z,99388.69
2022-10-24T01:38:44.756Z,99373.22
2022-10-24T01:41:33.219Z,99383.44
2022-10-24T01:44:24.628Z,99369.38
2022-10-24T01:47:17.036Z,99370.75
2022-10-24T01:50:08.386Z,99371.31
2022-10-24T01:52:56.893Z,99358.22
2022-10-24T01:55:45.266Z,99358.22
2022-10-24T01:58:33.720Z,99369.38
2022-10-24T02:01:24.354Z,99361.38
2022-10-24T02:04:14.123Z,99361.25
2022-10-24T02:07:03.306Z,99355.03
2022-10-24T02:09:54.355Z,99367.72
2022-10-24T02:12:45.958Z,99368.28
2022-10-24T02:15:37.407Z,99365.22
2022-10-24T02:18:25.770Z,99379.84
2022-10-24T02:21:21.004Z,99372.94
2022-10-24T02:24:13.462Z,99373.78
2022-10-24T02:27:05.011Z,99373.78
2022-10-24T02:29:56.172Z,99372.66
2022-10-24T02:32:46.712Z,99374.88
2022-10-24T02:35:36.751Z,99378.47
2022-10-24T02:38:28.409Z,99372.94
2022-10-24T02:41:20.441Z,99362.47
2022-10-24T02:44:08.872Z,99360.56
2022-10-24T02:46:59.131Z,99355.03
2022-10-24T02:49:47.464Z,99361.38
2022-10-24T02:52:36.003Z,99346.22
2022-10-24T02:55:26.065Z,99356.56
2022-10-24T02:58:14.501Z,99354.34
2022-10-24T03:01:02.991Z,99355.84
2022-10-24T03:03:51.591Z,99345.66
2022-10-24T03:06:39.941Z,99345.94
2022-10-24T03:09:28.308Z,99341.72
2022-10-24T03:12:18.244Z,99338.97
2022-10-24T03:15:07.593Z,99362.06
2022-10-24T03:17:56.018Z,99366.31
2022-10-24T03:20:44.431Z,99367.69
2022-10-24T03:23:32.836Z,99362.56
2022-10-24T03:26:21.241Z,99360.13
2022-10-24T03:29:10.985Z,99364.88
2022-10-24T03:31:59.544Z,99376.56
2022-10-24T03:34:47.925Z,99382.84
2022-10-24T03:37:36.267Z,99386.09
2022-10-24T03:40:24.876Z,99387.75
2022-10-24T03:43:13.326Z,99391.75
2022-10-24T03:46:03.030Z,99398.34
2022-10-24T03:48:51.484Z,99390.31
2022-10-24T03:51:39.890Z,99392.22
2022-10-24T03:54:28.467Z,99387.81
2022-10-24T03:57:16.891Z,99379.47
2022-10-24T04:00:06.836Z,99381.31
2022-10-24T04:02:57.295Z,99383.06
2022-10-24T04:05:45.673Z,99387.97
2022-10-24T04:08:34.088Z,99376.44
2022-10-24T04:11:22.467Z,99372.78
2022-10-24T04:14:10.912Z,99371.00
2022-10-24T04:16:59.271Z,99369.13
2022-10-24T04:19:49.012Z,99368.06
2022-10-24T04:22:37.568Z,99375.94
2022-10-24T04:25:26.021Z,99371.00
2022-10-24T04:28:14.390Z,99372.09
2022-10-24T04:31:02.819Z,99380.41
2022-10-24T04:33:51.176Z,99388.94
2022-10-24T04:36:41.247Z,99383.41
2022-10-24T04:39:29.850Z,99385.63
2022-10-24T04:42:18.248Z,99376.84
2022-10-24T04:45:08.763Z,99375.56
2022-10-24T04:47:57.153Z,99379.72
2022-10-24T04:50:46.130Z,99376.94
2022-10-24T04:53:35.979Z,99362.75
2022-10-24T04:56:25.889Z,99356.69
2022-10-24T04:59:14.293Z,99354.06
2022-10-24T05:02:02.686Z,99353.13
2022-10-24T05:04:51.212Z,99357.53
2022-10-24T05:07:39.657Z,99358.22
2022-10-24T05:10:29.420Z,99368.69
2022-10-24T05:13:18.106Z,99368.56
2022-10-24T05:16:07.146Z,99372.00
2022-10-24T05:18:55.597Z,99372.97
2022-10-24T05:21:43.975Z,99367.72
2022-10-24T05:24:32.562Z,99391.44
2022-10-24T05:27:24.673Z,99387.00
2022-10-24T05:30:14.637Z,99378.75
2022-10-24T05:33:03.063Z,99384.53
2022-10-24T05:35:51.585Z,99398.31
2022-10-24T05:38:39.971Z,99412.13
2022-10-24T05:41:28.334Z,99409.63
2022-10-24T05:44:18.019Z,99413.91
2022-10-24T05:47:06.571Z,99414.03
2022-10-24T05:49:55.091Z,99415.97
2022-10-24T05:52:46.902Z,99428.25
2022-10-24T05:55:35.867Z,99440.50
2022-10-24T05:58:24.835Z,99431.81
2022-10-24T06:01:14.668Z,99441.47
2022-10-24T06:03:42.811Z,99448.63
2022-10-24T06:06:11.333Z,99434.84
2022-10-24T06:08:39.491Z,99441.19
2022-10-24T06:11:10.116Z,99443.25
2022-10-24T06:13:38.332Z,99434.97
2022-10-24T06:16:07.779Z,99441.41
2022-10-24T06:18:37.362Z,99450.53
2022-10-24T06:21:06.898Z,99462.22
2022-10-24T06:23:35.287Z,99465.25
2022-10-24T06:26:03.412Z,99473.50
2022-10-24T06:28:31.498Z,99472.13
2022-10-24T06:31:03.200Z,99476.78
2022-10-24T06:33:31.386Z,99485.84
2022-10-24T06:36:02.186Z,99484.81
2022-10-24T06:38:30.433Z,99479.84
2022-10-24T06:40:58.712Z,99482.47
2022-10-24T06:43:26.909Z,99481.66
2022-10-24T06:45:55.483Z,99491.41
2022-10-24T06:48:23.708Z,99490.00
2022-10-24T06:50:51.813Z,99491.00
2022-10-24T06:55:54.184Z,99496.34
2022-10-24T06:58:22.362Z,99488.50
2022-10-24T07:00:50.482Z,99486.97
2022-10-24T07:03:18.606Z,99497.56
2022-10-24T07:05:46.746Z,99490.91
2022-10-24T07:08:14.897Z,99492.03
2022-10-24T07:10:44.452Z,99498.34
2022-10-24T07:13:12.548Z,99515.13
2022-10-24T07:15:40.687Z,99519.53
2022-10-24T07:18:13.237Z,99513.59
2022-10-24T07:20:41.389Z,99511.94
2022-10-24T07:23:09.523Z,99510.28
2022-10-24T07:25:39.121Z,99506.97
2022-10-24T07:28:08.810Z,99511.22
2022-10-24T07:30:36.949Z,99522.78
2022-10-24T07:33:05.291Z,99517.66
2022-10-24T07:35:33.424Z,99516.03
2022-10-24T07:38:01.469Z,99518.75
2022-10-24T07:40:29.695Z,99507.59
2022-10-24T07:42:57.768Z,99506.78
2022-10-24T07:45:28.272Z,99505.13
2022-10-24T07:47:56.408Z,99485.84
2022-10-24T07:50:24.500Z,99486.69
2022-10-24T07:53:13.002Z,99483.94
2022-10-24T07:55:46.807Z,99488.34
2022-10-24T07:58:15.041Z,99482.31
2022-10-24T08:00:45.545Z,99484.91
2022-10-24T08:03:13.770Z,99485.84
2022-10-24T08:05:42.064Z,99484.22
2022-10-24T08:08:35.888Z,99492.88
2022-10-24T08:13:27.188Z,99499.34
2022-10-24T08:15:56.649Z,99494.59
2022-10-24T08:18:24.792Z,99498.63
2022-10-24T08:20:59.733Z,99488.69
2022-10-24T08:23:27.939Z,99493.00
2022-10-24T08:25:56.021Z,99493.81
2022-10-24T08:28:24.472Z,99495.44
2022-10-24T08:31:04.077Z,99506.63
2022-10-24T08:33:32.289Z,99516.00
2022-10-24T08:36:02.248Z,99516.84
2022-10-24T08:38:30.487Z,99514.22
2022-10-24T08:40:58.816Z,99513.25
2022-10-24T08:43:26.895Z,99513.94
2022-10-24T08:46:01.425Z,99503.38
2022-10-24T08:48:35.119Z,99503.38
2022-10-24T08:51:09.471Z,99490.41
2022-10-24T08:53:37.575Z,99496.47
2022-10-24T08:56:06.461Z,99487.78
2022-10-24T08:58:37.336Z,99494.13
2022-10-24T09:01:08.967Z,99495.63
2022-10-24T09:03:55.720Z,99489.72
2022-10-24T09:06:26.597Z,99495.34
2022-10-24T09:08:55.976Z,99496.63
2022-10-24T09:11:27.572Z,99500.75
2022-10-24T09:13:55.948Z,99491.97
2022-10-24T09:16:24.251Z,99496.09
2022-10-24T09:18:55.074Z,99498.25
2022-10-24T09:21:23.364Z,99499.00
2022-10-24T09:23:51.818Z,99488.66
2022-10-24T09:26:25.097Z,99496.50
2022-10-24T09:28:55.055Z,99492.34
2022-10-24T09:31:24.569Z,99494.78
2022-10-24T09:33:54.466Z,99494.41
2022-10-24T09:36:24.894Z,99504.84
2022-10-24T09:38:53.183Z,99497.84
2022-10-24T09:41:23.663Z,99507.47
2022-10-24T09:43:54.965Z,99513.31
2022-10-24T09:46:23.783Z,99512.00
2022-10-24T09:48:55.863Z,99509.25
2022-10-24T09:51:33.431Z,99520.34
2022-10-24T09:54:08.840Z,99523.09
2022-10-24T09:56:39.268Z,99510.53
2022-10-24T09:59:23.926Z,99515.94
2022-10-24T10:01:52.233Z,99522.03
2022-10-24T10:04:21.664Z,99525.63
2022-10-24T10:06:50.654Z,99534.75
2022-10-24T10:09:27.383Z,99530.03
2022-10-24T10:12:02.559Z,99535.00
2022-10-24T10:14:32.500Z,99532.53
2022-10-24T10:17:01.216Z,99535.84
2022-10-24T10:19:31.759Z,99539.38
2022-10-24T10:22:01.874Z,99547.94
2022-10-24T10:24:38.813Z,99544.44
2022-10-24T10:27:33.221Z,99548.97
2022-10-24T10:30:25.587Z,99555.63
2022-10-24T10:33:12.741Z,99548.22
2022-10-24T10:35:45.702Z,99553.63
2022-10-24T10:38:30.469Z,99551.31
2022-10-24T10:41:01.464Z,99539.47
2022-10-24T10:43:33.470Z,99552.22
2022-10-24T10:46:14.754Z,99563.28
2022-10-24T10:48:57.449Z,99555.56
2022-10-24T10:51:35.555Z,99554.72
2022-10-24T10:54:11.024Z,99548.94
2022-10-24T10:56:43.768Z,99541.75
2022-10-24T10:59:28.639Z,99538.16
2022-10-24T11:02:01.064Z,99550.44
2022-10-24T11:04:34.797Z,99547.78
2022-10-24T11:07:07.533Z,99551.78
2022-10-24T11:09:38.148Z,99537.03
2022-10-24T11:12:11.232Z,99536.50
2022-10-24T11:14:40.882Z,99535.56
2022-10-24T11:17:14.768Z,99543.94
2022-10-24T11:19:59.661Z,99559.00
2022-10-24T11:22:32.063Z,99543.44
2022-10-24T11:25:02.835Z,99538.19
2022-10-24T11:27:37.099Z,99540.81
2022-10-24T11:30:07.791Z,99549.75
2022-10-24T11:32:38.271Z,99544.91
2022-10-24T11:35:14.842Z,99547.25
2022-10-24T11:37:45.744Z,99538.22
2022-10-24T11:40:15.877Z,99530.28
2022-10-24T11:42:48.744Z,99536.13
2022-10-24T11:45:18.777Z,99517.56
2022-10-24T11:47:55.830Z,99522.78
2022-10-24T11:50:28.770Z,99517.47
2022-10-24T11:53:04.230Z,99521.03
2022-10-24T11:55:37.370Z,99512.75
2022-10-24T11:58:08.212Z,99512.59
2022-10-24T12:00:43.063Z,99520.22
2022-10-24T12:03:41.819Z,99510.91
2022-10-24T12:07:00.836Z,99507.25
2022-10-24T12:09:42.989Z,99508.59
2022-10-24T12:12:24.780Z,99494.53
2022-10-24T12:15:07.438Z,99513.06
2022-10-24T12:17:48.541Z,99509.63
2022-10-24T12:20:18.944Z,99481.16
2022-10-24T12:22:47.345Z,99487.44
2022-10-24T12:25:32.216Z,99482.47
2022-10-24T12:28:02.232Z,99482.50
2022-10-24T12:30:32.210Z,99468.47
2022-10-24T12:33:09.791Z,99474.59
2022-10-24T12:35:56.372Z,99471.44
2022-10-24T12:39:04.238Z,99478.38
2022-10-24T12:41:45.975Z,99479.69
2022-10-24T12:44:41.143Z,99480.81
2022-10-24T12:47:32.099Z,99476.25
2022-10-24T12:50:21.320Z,99477.22
2022-10-24T12:53:04.149Z,99481.28
2022-10-24T12:56:11.515Z,99486.72
2022-10-24T12:58:42.999Z,99484.44
2022-10-24T13:01:23.077Z,99475.34
2022-10-24T13:04:52.911Z,99475.81
2022-10-24T13:07:50.909Z,99473.91
2022-10-24T13:10:28.744Z,99475.19
2022-10-24T13:13:10.466Z,99471.56
2022-10-24T13:15:44.818Z,99473.22
2022-10-24T13:18:24.969Z,99464.97
2022-10-24T13:21:19.810Z,99475.66
2022-10-24T13:23:48.652Z,99468.25
2022-10-24T13:26:36.754Z,99472.22
2022-10-24T13:29:05.364Z,99466.28
2022-10-24T13:31:50.347Z,99465.94
2022-10-24T13:34:24.413Z,99469.72
2022-10-24T13:36:59.228Z,99464.13
2022-10-24T13:39:32.038Z,99466.44
2022-10-24T13:42:05.013Z,99476.78
2022-10-24T13:44:40.875Z,99470.78
2022-10-24T13:47:16.397Z,99468.75
2022-10-24T13:49:52.998Z,99470.66
2022-10-24T13:52:26.377Z,99468.94
2022-10-24T13:54:59.441Z,99467.38
2022-10-24T13:57:33.792Z,99481.94
2022-10-24T14:00:04.488Z,99475.56
2022-10-24T14:02:40.761Z,99482.34
2022-10-24T14:05:23.777Z,99482.59
2022-10-24T14:07:51.860Z,99478.25
2022-10-24T14:10:19.970Z,99486.59
2022-10-24T14:12:51.801Z,99487.72
2022-10-24T14:15:21.731Z,99496.59
2022-10-24T14:18:00.465Z,99496.59
2022-10-24T14:20:31.594Z,99499.75
2022-10-24T14:22:59.782Z,99490.34
2022-10-24T14:25:31.956Z,99498.22
2022-10-24T14:28:01.995Z,99501.25
2022-10-24T14:30:33.542Z,99492.59
2022-10-24T14:33:25.506Z,99491.41
2022-10-24T14:35:57.027Z,99504.28
2022-10-24T14:38:26.665Z,99502.06
2022-10-24T14:41:07.812Z,99502.75
2022-10-24T14:43:39.730Z,99510.84
2022-10-24T14:46:34.604Z,99520.47
2022-10-24T14:49:22.158Z,99514.97
2022-10-24T14:51:50.932Z,99515.13
2022-10-24T14:54:20.470Z,99505.91
2022-10-24T14:56:48.784Z,99507.53
2022-10-24T14:59:22.693Z,99495.06
2022-10-24T15:01:56.604Z,99504.56
2022-10-24T15:04:32.099Z,99506.13
2022-10-24T15:07:00.334Z,99502.59
2022-10-24T15:09:29.458Z,99498.38
2022-10-24T15:12:02.020Z,99496.63
2022-10-24T15:14:37.532Z,99500.16
2022-10-24T15:17:17.467Z,99503.16
2022-10-24T15:19:47.086Z,99506.94
2022-10-24T15:22:23.125Z,99509.13
2022-10-24T15:24:52.331Z,99496.00
2022-10-24T15:27:26.698Z,99500.53
2022-10-24T15:29:56.098Z,99502.47
2022-10-24T15:32:24.382Z,99503.25
2022-10-24T15:34:56.020Z,99505.22
2022-10-24T15:37:25.967Z,99514.84
2022-10-24T15:39:54.211Z,99513.16
2022-10-24T15:42:22.790Z,99512.69
2022-10-24T15:44:51.079Z,99521.34
2022-10-24T15:47:23.733Z,99516.94
2022-10-24T15:49:52.344Z,99528.88
2022-10-24T15:52:21.782Z,99526.69
2022-10-24T15:54:49.877Z,99533.38
2022-10-24T15:57:17.986Z,99534.53
2022-10-24T15:59:46.107Z,99528.47
2022-10-24T16:02:17.880Z,99533.88
2022-10-24T16:04:46.033Z,99530.47
2022-10-24T16:07:14.190Z,99532.91
2022-10-24T16:09:43.768Z,99537.78
2022-10-24T16:12:12.377Z,99542.88
2022-10-24T16:14:40.553Z,99543.72
2022-10-24T16:17:08.657Z,99538.75
2022-10-24T16:19:36.752Z,99555.84
2022-10-24T16:22:04.837Z,99545.91
2022-10-24T16:24:32.974Z,99551.69
2022-10-24T16:27:02.564Z,99550.88
2022-10-24T16:29:30.902Z,99576.97
2022-10-24T16:31:58.982Z,99579.84
2022-10-24T16:34:27.214Z,99576.09
2022-10-24T16:36:55.558Z,99574.00
2022-10-24T16:39:24.074Z,99583.25
2022-10-24T16:41:55.174Z,99581.97
2022-10-24T16:44:24.710Z,99584.97
2022-10-24T16:46:53.962Z,99580.84
2022-10-24T16:49:22.104Z,99589.94
2022-10-24T16:51:52.540Z,99584.97
2022-10-24T16:54:22.699Z,99581.66
2022-10-24T16:56:53.939Z,99578.44
2022-10-24T16:59:23.678Z,99579.56
2022-10-24T17:01:51.853Z,99584.09
2022-10-24T17:04:20.001Z,99589.59
2022-10-24T17:06:48.175Z,99589.88
2022-10-24T17:09:16.302Z,99587.50
2022-10-24T17:11:46.269Z,99586.81
2022-10-24T17:14:15.026Z,99598.38
2022-10-24T17:16:45.498Z,99591.91
2022-10-24T17:19:17.677Z,99588.69
2022-10-24T17:21:47.799Z,99593.34
2022-10-24T17:24:16.983Z,99596.13
2022-10-24T17:26:45.249Z,99605.03
2022-10-24T17:29:14.325Z,99602.69
2022-10-24T17:31:44.094Z,99606.53
2022-10-24T17:34:12.608Z,99612.72
2022-10-24T17:36:40.845Z,99610.63
2022-10-24T17:39:13.301Z,99608.72
2022-10-24T17:41:41.628Z,99613.38
2022-10-24T17:44:13.756Z,99630.16
2022-10-24T17:46:42.310Z,99620.88
2022-10-24T17:49:16.466Z,99630.63
2022-10-24T17:51:47.859Z,99635.31
2022-10-24T17:54:16.157Z,99637.34
2022-10-24T17:56:44.700Z,99636.78
2022-10-24T17:59:12.835Z,99641.44
2022-10-24T18:01:41.219Z,99652.16
2022-10-24T18:04:10.764Z,99658.59
2022-10-24T18:06:42.972Z,99663.22
2022-10-24T18:09:11.907Z,99668.84
2022-10-24T18:11:40.218Z,99665.78
2022-10-24T18:14:08.399Z,99681.84
2022-10-24T18:16:37.629Z,99678.91
2022-10-24T18:19:06.005Z,99692.47
2022-10-24T18:21:35.531Z,99680.59
2022-10-24T18:24:06.047Z,99687.97
2022-10-24T18:26:34.189Z,99684.91
2022-10-24T18:29:02.294Z,99699.19
2022-10-24T18:31:31.254Z,99680.44
2022-10-24T18:34:04.904Z,99681.47
2022-10-24T18:36:37.549Z,99679.00
2022-10-24T18:39:05.860Z,99681.94
2022-10-24T18:41:46.552Z,99682.31
2022-10-24T18:44:28.781Z,99684.34
2022-10-24T18:46:59.628Z,99683.50
2022-10-24T18:49:28.366Z,99685.41
2022-10-24T18:52:05.182Z,99679.47
2022-10-24T18:54:33.704Z,99689.22
2022-10-24T18:57:02.230Z,99692.78
2022-10-24T18:59:32.174Z,99686.13
2022-10-24T19:02:12.316Z,99692.56
2022-10-24T19:04:41.749Z,99680.69
2022-10-24T19:07:11.596Z,99687.34
2022-10-24T19:09:40.535Z,99691.97
2022-10-24T19:12:10.176Z,99693.84
2022-10-24T19:14:39.473Z,99698.50
2022-10-24T19:17:07.592Z,99700.41
2022-10-24T19:19:35.772Z,99692.06
2022-10-24T19:22:03.994Z,99692.31
2022-10-24T19:24:33.454Z,99695.91
2022-10-24T19:27:01.629Z,99710.13
2022-10-24T19:29:29.902Z,99703.72
2022-10-24T19:31:58.552Z,99706.53
2022-10-24T19:34:28.252Z,99712.94
2022-10-24T19:36:57.396Z,99714.16
2022-10-24T19:39:28.164Z,99713.44
2022-10-24T19:41:59.806Z,99727.41
2022-10-24T19:44:27.935Z,99731.06
2022-10-24T19:46:56.083Z,99721.69
2022-10-24T19:49:24.186Z,99724.28
2022-10-24T19:51:52.415Z,99734.00
2022-10-24T19:54:20.454Z,99728.19
2022-10-24T19:56:49.312Z,99720.69
2022-10-24T19:59:18.787Z,99722.84
2022-10-24T20:01:47.038Z,99730.91
2022-10-24T20:04:39.948Z,99740.00
2022-10-24T20:07:28.707Z,99738.47
2022-10-24T20:10:17.328Z,99748.50
2022-10-24T20:13:05.694Z,99749.06
2022-10-24T20:15:56.220Z,99749.53
2022-10-24T20:18:44.722Z,99744.28
2022-10-24T20:21:34.085Z,99751.69
2022-10-24T20:24:22.704Z,99753.91
2022-10-24T20:27:11.123Z,99768.31
2022-10-24T20:29:59.548Z,99776.38
2022-10-24T20:32:49.286Z,99774.91
2022-10-24T20:35:37.759Z,99779.59
2022-10-24T20:38:26.275Z,99775.63
2022-10-24T20:41:14.739Z,99779.75
2022-10-24T20:44:03.194Z,99774.16
2022-10-24T20:46:53.117Z,99779.69
2022-10-24T20:49:42.924Z,99773.22
2022-10-24T20:52:31.315Z,99777.69
2022-10-24T20:55:31.724Z,99776.97
2022-10-24T20:58:28.032Z,99789.47
2022-10-24T21:01:17.602Z,99788.25
2022-10-24T21:04:06.270Z,99810.94
2022-10-24T21:06:55.979Z,99823.56
2022-10-24T21:09:44.331Z,99822.31
2022-10-24T21:12:32.766Z,99824.28
2022-10-24T21:15:21.189Z,99824.59
2022-10-24T21:18:09.646Z,99823.03
2022-10-24T21:20:57.995Z,99830.09
2022-10-24T21:23:51.154Z,99832.94
2022-10-24T21:26:39.627Z,99849.69
2022-10-24T21:29:33.225Z,99844.78
2022-10-24T21:32:22.220Z,99853.50
2022-10-24T21:35:10.693Z,99847.56
2022-10-24T21:37:59.052Z,99852.13
2022-10-24T21:40:48.775Z,99846.28
2022-10-24T21:43:38.859Z,99847.31
2022-10-24T21:46:29.081Z,99850.00
2022-10-24T21:49:17.643Z,99847.53
2022-10-24T21:52:06.120Z,99854.59
2022-10-24T21:54:54.821Z,99854.59
2022-10-24T21:57:44.542Z,99850.22
2022-10-24T22:00:35.626Z,99852.09
2022-10-24T22:03:26.543Z,99858.25
2022-10-24T22:06:16.859Z,99853.88
2022-10-24T22:09:05.601Z,99865.94
2022-10-24T22:11:57.653Z,99860.84
2022-10-24T22:14:47.391Z,99871.34
2022-10-24T22:17:36.213Z,99878.50
2022-10-24T22:20:24.591Z,99872.69
2022-10-24T22:23:12.961Z,99875.38
2022-10-24T22:26:02.055Z,99884.22
2022-10-24T22:28:50.383Z,99887.03
2022-10-24T22:31:40.911Z,99893.16
2022-10-24T22:34:30.085Z,99895.97
2022-10-24T22:37:25.156Z,99899.28
2022-10-24T22:40:20.100Z,99894.28
2022-10-24T22:43:09.988Z,99907.28
2022-10-24T22:46:03.516Z,99902.38
2022-10-24T22:48:55.949Z,99913.59
2022-10-24T22:51:44.958Z,99907.56
2022-10-24T22:54:35.886Z,99913.41
2022-10-24T22:57:25.285Z,99908.22
2022-10-24T23:00:15.656Z,99911.84
2022-10-24T23:03:09.837Z,99910.16
2022-10-24T23:06:01.537Z,99906.75
2022-10-24T23:08:49.921Z,99914.63
2022-10-24T23:11:38.877Z,99923.38
2022-10-24T23:14:28.189Z,99922.72
2022-10-24T23:17:23.210Z,99917.72
2022-10-24T23:20:20.622Z,99929.16
2022-10-24T23:23:17.243Z,99913.75
2022-10-24T23:26:23.865Z,99922.56
2022-10-24T23:29:16.596Z,99915.81
2022-10-24T23:32:05.790Z,99925.38
2022-10-24T23:34:55.237Z,99917.88
2022-10-24T23:37:45.175Z,99925.75
2022-10-24T23:40:36.221Z,99931.91
2022-10-24T23:43:25.287Z,99932.81
2022-10-24T23:46:22.395Z,99936.53
2022-10-24T23:49:21.545Z,99938.22
2022-10-24T23:52:21.344Z,99940.81
2022-10-24T23:55:11.322Z,99933.94
2022-10-24T23:58:01.911Z,99939.03
